Time;durP1;ratioP1;P1;durP2;ratioP2;P2;SDS_P1;SDS_P2;PMS_P1;PMS_P2;Temp;Humidity;BMP_temperature;BMP_pressure;BME280_temperature;BME280_humidity;BME280_pressure;Samples;Min_cycle;Max_cycle;Signal;HPM_P1;HPM_P2
2021/05/04 00:02:27;;;;;;;4.13;2.60;;;13.40;74.40;;;;;;5054873;28;20257;-79
2021/05/04 00:05:13;;;;;;;5.10;3.07;;;13.40;74.20;;;;;;5042082;28;20302;-79
2021/05/04 00:07:58;;;;;;;7.47;2.60;;;13.50;75.10;;;;;;5046510;28;20226;-79
2021/05/04 00:10:43;;;;;;;6.93;2.70;;;13.50;74.50;;;;;;5052545;28;20223;-79
2021/05/04 00:13:27;;;;;;;11.33;3.00;;;13.60;75.50;;;;;;5051974;28;20234;-77
2021/05/04 00:16:12;;;;;;;8.03;2.33;;;13.50;74.60;;;;;;5051467;28;20254;-78
2021/05/04 00:18:57;;;;;;;4.87;2.50;;;13.50;75.00;;;;;;5054230;28;20215;-78
2021/05/04 00:21:42;;;;;;;4.63;2.67;;;13.50;76.20;;;;;;5077134;28;20211;-78
2021/05/04 00:24:28;;;;;;;8.57;2.40;;;13.50;78.10;;;;;;5054284;28;20247;-78
2021/05/04 00:27:12;;;;;;;6.77;2.33;;;13.40;79.20;;;;;;5046897;28;20273;-77
2021/05/04 00:29:58;;;;;;;9.47;2.83;;;13.30;79.00;;;;;;5043992;28;20210;-78
2021/05/04 00:32:42;;;;;;;6.73;2.47;;;13.20;81.40;;;;;;5041871;28;20229;-77
2021/05/04 00:35:27;;;;;;;5.87;2.47;;;13.10;82.30;;;;;;5047678;28;20277;-77
2021/05/04 00:38:12;;;;;;;7.90;2.23;;;13.00;85.60;;;;;;5044195;28;20217;-77
2021/05/04 00:40:57;;;;;;;8.03;2.70;;;12.80;85.20;;;;;;5051932;28;20256;-77
2021/05/04 00:43:42;;;;;;;5.63;2.40;;;12.70;87.90;;;;;;5051189;28;20251;-77
2021/05/04 00:46:27;;;;;;;5.10;1.80;;;12.60;89.30;;;;;;5040416;28;20715;-77
2021/05/04 00:49:11;;;;;;;8.13;2.93;;;12.40;90.30;;;;;;5050609;28;20582;-77
2021/05/04 00:51:56;;;;;;;8.03;2.90;;;12.30;91.40;;;;;;5045342;28;20240;-78
2021/05/04 00:54:42;;;;;;;8.77;2.73;;;12.20;92.80;;;;;;5051600;28;20203;-78
2021/05/04 00:57:27;;;;;;;7.60;2.20;;;12.00;93.80;;;;;;5051709;28;20254;-78
2021/05/04 01:00:13;;;;;;;11.87;2.70;;;11.90;95.00;;;;;;5047700;28;20614;-78
2021/05/04 01:02:58;;;;;;;8.27;2.73;;;11.70;96.60;;;;;;5046280;28;20207;-78
2021/05/04 01:05:43;;;;;;;10.50;3.70;;;11.60;99.50;;;;;;5049949;28;20912;-78
2021/05/04 01:08:28;;;;;;;7.53;2.60;;;11.40;99.90;;;;;;5053710;28;20253;-78
2021/05/04 01:11:13;;;;;;;8.40;2.77;;;11.30;99.90;;;;;;5049271;28;20641;-78
2021/05/04 01:13:59;;;;;;;6.97;2.93;;;11.20;99.90;;;;;;5040238;28;20212;-78
2021/05/04 01:16:48;;;;;;;7.33;2.87;;;11.00;99.90;;;;;;5047306;28;20590;-78
2021/05/04 01:19:33;;;;;;;8.00;3.33;;;10.90;99.90;;;;;;5047449;28;20207;-78
2021/05/04 01:22:19;;;;;;;6.83;2.70;;;10.80;99.90;;;;;;5048619;28;20251;-78
2021/05/04 01:25:05;;;;;;;6.47;3.53;;;10.70;99.90;;;;;;5047078;28;20218;-78
2021/05/04 01:27:51;;;;;;;6.63;2.77;;;10.50;99.90;;;;;;5046301;28;20256;-78
2021/05/04 01:30:36;;;;;;;3.97;2.27;;;10.40;99.90;;;;;;5050129;28;20353;-77
2021/05/04 01:33:21;;;;;;;4.60;2.53;;;10.30;99.90;;;;;;5046444;28;20229;-78
2021/05/04 01:36:06;;;;;;;11.07;3.33;;;10.20;99.90;;;;;;5051839;28;20711;-78
2021/05/04 01:38:52;;;;;;;5.97;3.23;;;10.10;99.90;;;;;;5047995;28;20223;-77
2021/05/04 01:41:37;;;;;;;6.90;3.50;;;10.10;99.90;;;;;;5046791;28;20767;-77
2021/05/04 01:44:22;;;;;;;5.97;3.77;;;10.00;99.90;;;;;;5045119;28;20711;-77
2021/05/04 01:47:07;;;;;;;7.00;4.10;;;9.90;99.90;;;;;;5052158;28;20217;-77
2021/05/04 01:49:52;;;;;;;6.77;3.70;;;9.90;99.90;;;;;;5050592;28;20218;-78
2021/05/04 01:52:37;;;;;;;6.53;3.13;;;9.80;99.90;;;;;;5048699;28;20229;-77
2021/05/04 01:55:23;;;;;;;6.87;3.90;;;9.80;99.90;;;;;;5041413;28;20203;-77
2021/05/04 01:58:07;;;;;;;7.97;4.30;;;9.70;99.90;;;;;;5052415;28;20230;-77
2021/05/04 02:00:52;;;;;;;6.80;3.80;;;9.70;99.90;;;;;;5052359;28;20222;-78
2021/05/04 02:03:36;;;;;;;11.07;4.67;;;9.60;99.90;;;;;;5050313;28;20207;-77
2021/05/04 02:06:21;;;;;;;8.07;3.37;;;9.60;99.90;;;;;;5050919;28;20218;-77
2021/05/04 02:09:07;;;;;;;8.43;4.20;;;9.60;99.90;;;;;;5050198;28;20211;-77
2021/05/04 02:11:53;;;;;;;6.87;4.30;;;9.60;99.90;;;;;;5050758;28;20740;-78
2021/05/04 02:14:38;;;;;;;4.87;3.47;;;9.50;99.90;;;;;;5036608;28;20239;-76
2021/05/04 02:17:23;;;;;;;6.23;4.50;;;9.50;99.90;;;;;;5053229;28;20206;-78
2021/05/04 02:20:10;;;;;;;6.77;4.30;;;9.40;99.90;;;;;;5048282;28;20740;-77
2021/05/04 02:22:55;;;;;;;7.60;4.17;;;9.40;99.90;;;;;;5046801;28;20199;-77
2021/05/04 02:25:39;;;;;;;6.60;3.87;;;9.40;99.90;;;;;;5054803;28;20202;-77
2021/05/04 02:28:25;;;;;;;6.27;3.83;;;9.40;99.90;;;;;;5054348;28;20215;-78
2021/05/04 02:31:11;;;;;;;8.40;4.50;;;9.30;99.90;;;;;;5039439;28;20237;-77
2021/05/04 02:33:56;;;;;;;6.57;4.53;;;9.20;99.90;;;;;;5059103;28;20222;-77
2021/05/04 02:36:41;;;;;;;7.50;3.70;;;9.30;99.90;;;;;;5063243;28;20321;-77
2021/05/04 02:39:26;;;;;;;8.23;4.90;;;9.30;99.90;;;;;;5048803;28;20215;-76
2021/05/04 02:42:10;;;;;;;7.27;4.50;;;9.30;99.90;;;;;;5050161;28;20230;-77
2021/05/04 02:44:56;;;;;;;10.03;4.83;;;9.20;99.90;;;;;;5048986;28;20230;-77
2021/05/04 02:47:41;;;;;;;6.03;4.73;;;9.20;99.90;;;;;;5049039;28;20277;-77
2021/05/04 02:50:25;;;;;;;5.93;3.50;;;9.20;99.90;;;;;;5036980;28;20231;-76
2021/05/04 02:53:10;;;;;;;5.77;4.00;;;9.20;99.90;;;;;;5050393;28;20213;-77
2021/05/04 02:55:55;;;;;;;6.07;4.17;;;9.20;99.90;;;;;;5048783;28;20588;-76
2021/05/04 02:58:40;;;;;;;8.10;4.60;;;9.10;99.90;;;;;;5054692;28;20256;-76
2021/05/04 03:01:25;;;;;;;5.67;4.53;;;9.10;99.90;;;;;;5041453;28;20261;-77
2021/05/04 03:04:10;;;;;;;6.43;3.80;;;9.10;99.90;;;;;;5052715;28;20219;-78
2021/05/04 03:06:55;;;;;;;6.27;4.13;;;9.10;99.90;;;;;;5054256;28;20242;-77
2021/05/04 03:09:39;;;;;;;7.07;4.60;;;9.10;99.90;;;;;;5054744;28;20207;-77
2021/05/04 03:12:24;;;;;;;8.00;4.50;;;9.10;99.90;;;;;;5058308;28;20638;-78
2021/05/04 03:15:10;;;;;;;9.07;4.40;;;9.10;99.90;;;;;;5079049;28;20210;-77
2021/05/04 03:17:56;;;;;;;7.03;4.40;;;9.10;99.90;;;;;;5065809;28;20574;-76
2021/05/04 03:20:41;;;;;;;4.33;3.63;;;9.10;99.90;;;;;;5054868;28;20222;-78
2021/05/04 03:23:25;;;;;;;5.70;4.17;;;9.10;99.90;;;;;;5052709;28;20761;-76
2021/05/04 03:26:10;;;;;;;6.80;4.40;;;9.10;99.90;;;;;;5050274;28;20206;-76
2021/05/04 03:28:55;;;;;;;5.67;3.90;;;9.10;99.90;;;;;;5034298;28;20215;-75
2021/05/04 03:31:39;;;;;;;4.67;4.17;;;9.10;99.90;;;;;;5046477;28;20301;-77
2021/05/04 03:34:25;;;;;;;6.50;3.67;;;9.20;99.90;;;;;;5053703;28;20214;-76
2021/05/04 03:37:09;;;;;;;10.30;3.70;;;9.20;99.90;;;;;;5052001;28;20284;-77
2021/05/04 03:39:54;;;;;;;4.17;3.77;;;9.20;99.90;;;;;;5053072;28;20231;-77
2021/05/04 03:42:39;;;;;;;5.10;4.00;;;9.30;99.90;;;;;;5053714;28;20191;-77
2021/05/04 03:45:24;;;;;;;4.73;3.10;;;9.30;99.90;;;;;;5046129;28;20218;-76
2021/05/04 03:48:09;;;;;;;5.40;4.30;;;9.30;99.90;;;;;;5045335;28;20198;-75
2021/05/04 03:50:54;;;;;;;6.80;4.07;;;9.30;99.90;;;;;;5051466;28;20226;-77
2021/05/04 03:53:40;;;;;;;7.70;4.60;;;9.30;99.90;;;;;;5052653;28;20230;-76
2021/05/04 03:56:25;;;;;;;7.23;4.27;;;9.30;99.90;;;;;;5042146;28;20199;-77
2021/05/04 03:59:10;;;;;;;7.07;4.83;;;9.30;99.90;;;;;;5049071;28;20214;-76
2021/05/04 04:01:56;;;;;;;6.50;5.07;;;9.30;99.90;;;;;;5046693;28;20247;-77
2021/05/04 04:04:40;;;;;;;6.33;4.33;;;9.30;99.90;;;;;;5048565;28;20230;-76
2021/05/04 04:07:26;;;;;;;7.57;4.63;;;9.30;99.90;;;;;;5041136;28;20200;-75
2021/05/04 04:10:12;;;;;;;8.87;5.03;;;9.20;99.90;;;;;;5052351;28;20274;-76
2021/05/04 04:12:57;;;;;;;6.33;4.80;;;9.20;99.90;;;;;;5047887;28;20250;-76
2021/05/04 04:15:42;;;;;;;5.47;4.63;;;9.20;99.90;;;;;;5046447;28;20261;-77
2021/05/04 04:18:27;;;;;;;4.63;4.00;;;9.20;99.90;;;;;;5049601;28;20273;-77
2021/05/04 04:21:11;;;;;;;5.33;4.10;;;9.10;99.90;;;;;;5052485;28;20267;-76
2021/05/04 04:23:57;;;;;;;7.47;4.43;;;9.10;99.90;;;;;;5050747;28;20825;-77
2021/05/04 04:26:42;;;;;;;8.27;5.10;;;9.10;99.90;;;;;;5042721;28;20230;-76
2021/05/04 04:29:27;;;;;;;7.93;5.50;;;9.10;99.90;;;;;;5045973;28;20210;-77
2021/05/04 04:32:12;;;;;;;7.83;4.90;;;9.20;99.90;;;;;;5050616;28;20254;-77
2021/05/04 04:34:56;;;;;;;6.97;5.13;;;9.10;99.90;;;;;;5042405;28;20218;-75
2021/05/04 04:37:41;;;;;;;8.20;4.60;;;9.10;99.90;;;;;;5046007;28;20198;-76
2021/05/04 04:40:26;;;;;;;7.13;4.43;;;9.10;99.90;;;;;;5052523;28;20234;-76
2021/05/04 04:43:11;;;;;;;8.10;5.13;;;9.10;99.90;;;;;;5055223;28;20283;-77
2021/05/04 04:45:56;;;;;;;8.47;5.83;;;9.00;99.90;;;;;;5042428;28;20241;-75
2021/05/04 04:48:41;;;;;;;11.43;5.43;;;9.10;99.90;;;;;;5051442;28;20260;-77
2021/05/04 04:51:26;;;;;;;9.67;5.93;;;9.10;99.90;;;;;;5053856;28;20364;-77
2021/05/04 04:54:11;;;;;;;6.97;3.90;;;9.10;99.90;;;;;;5051886;28;20283;-76
2021/05/04 04:56:56;;;;;;;8.43;4.67;;;9.00;99.90;;;;;;5057171;28;20197;-76
2021/05/04 04:59:41;;;;;;;6.53;3.83;;;9.00;99.90;;;;;;5054408;28;20210;-76
2021/05/04 05:02:26;;;;;;;4.43;3.73;;;9.00;99.90;;;;;;5052968;28;20199;-76
2021/05/04 05:05:12;;;;;;;8.03;5.23;;;9.00;99.90;;;;;;5047436;28;20213;-76
2021/05/04 05:07:56;;;;;;;7.10;4.33;;;9.00;99.90;;;;;;5056712;28;20226;-75
2021/05/04 05:10:41;;;;;;;8.43;4.70;;;9.00;99.90;;;;;;5056481;28;20245;-76
2021/05/04 05:13:27;;;;;;;6.37;4.30;;;9.00;99.90;;;;;;5054866;28;20281;-76
2021/05/04 05:16:12;;;;;;;7.43;4.87;;;9.00;99.90;;;;;;5047192;28;20211;-77
2021/05/04 05:18:57;;;;;;;7.03;4.27;;;9.00;99.90;;;;;;5048407;28;20266;-75
2021/05/04 05:21:42;;;;;;;7.10;5.20;;;9.10;99.90;;;;;;5052579;28;20222;-76
2021/05/04 05:24:27;;;;;;;6.43;3.43;;;9.10;99.90;;;;;;5048710;28;20260;-76
2021/05/04 05:27:13;;;;;;;4.97;4.00;;;8.90;99.90;;;;;;5047928;28;21346;-76
2021/05/04 05:29:59;;;;;;;5.87;4.10;;;9.10;99.90;;;;;;5051709;28;20739;-76
2021/05/04 05:32:44;;;;;;;3.90;3.20;;;9.10;99.90;;;;;;5054396;28;20554;-76
2021/05/04 05:35:29;;;;;;;7.63;3.80;;;9.20;99.90;;;;;;5043232;28;20216;-77
2021/05/04 05:38:14;;;;;;;7.70;3.67;;;9.20;99.90;;;;;;5050197;28;20213;-76
2021/05/04 05:40:59;;;;;;;3.90;3.30;;;9.20;99.90;;;;;;5056621;28;20231;-75
2021/05/04 05:43:44;;;;;;;3.67;3.27;;;9.20;99.90;;;;;;5054846;28;20237;-77
2021/05/04 05:46:30;;;;;;;5.47;3.10;;;9.30;99.90;;;;;;5051754;28;20249;-76
2021/05/04 05:49:15;;;;;;;4.57;2.63;;;9.40;99.90;;;;;;5053022;28;20206;-76
2021/05/04 05:52:00;;;;;;;5.60;2.50;;;9.40;99.90;;;;;;5059593;28;20785;-78
2021/05/04 05:54:45;;;;;;;5.80;2.73;;;9.50;99.90;;;;;;5047128;28;20202;-77
2021/05/04 05:57:29;;;;;;;2.93;2.50;;;9.60;99.90;;;;;;5049719;28;20245;-76
2021/05/04 06:00:17;;;;;;;3.27;2.10;;;9.60;99.90;;;;;;5044346;28;20218;-76
2021/05/04 06:03:04;;;;;;;6.97;2.40;;;9.70;99.90;;;;;;5047140;28;20253;-76
2021/05/04 06:05:49;;;;;;;4.03;1.80;;;9.80;99.90;;;;;;5045358;28;20195;-78
2021/05/04 06:08:34;;;;;;;3.60;1.63;;;9.80;99.90;;;;;;5065074;28;20211;-80
2021/05/04 06:11:19;;;;;;;6.33;1.70;;;9.90;99.90;;;;;;5060994;28;20246;-78
2021/05/04 06:14:04;;;;;;;4.17;1.53;;;10.00;99.90;;;;;;5047556;28;20214;-77
2021/05/04 06:16:49;;;;;;;5.23;1.60;;;10.10;99.90;;;;;;5052174;28;20646;-79
2021/05/04 06:19:35;;;;;;;2.97;1.37;;;10.10;99.90;;;;;;5044959;28;20573;-78
2021/05/04 06:22:19;;;;;;;3.60;1.70;;;10.20;99.90;;;;;;5053721;28;20203;-78
2021/05/04 06:25:05;;;;;;;4.93;2.23;;;10.30;99.90;;;;;;5049515;28;20248;-77
2021/05/04 06:27:50;;;;;;;5.20;2.17;;;10.30;99.90;;;;;;5042155;28;20210;-78
2021/05/04 06:30:36;;;;;;;5.10;2.20;;;10.40;99.90;;;;;;5046328;28;20266;-78
2021/05/04 06:33:21;;;;;;;8.17;2.50;;;10.40;99.90;;;;;;5048577;28;21108;-77
2021/05/04 06:36:07;;;;;;;5.83;2.60;;;10.50;99.90;;;;;;5049963;28;20218;-75
2021/05/04 06:38:52;;;;;;;7.37;2.90;;;10.60;99.90;;;;;;5053385;28;20218;-76
2021/05/04 06:41:37;;;;;;;6.30;2.73;;;10.60;99.90;;;;;;5070658;28;20238;-77
2021/05/04 06:44:22;;;;;;;5.40;2.73;;;10.60;99.90;;;;;;5063279;28;20227;-77
2021/05/04 06:47:07;;;;;;;6.17;2.17;;;10.60;99.90;;;;;;5065888;28;20240;-75
2021/05/04 06:49:52;;;;;;;5.43;2.57;;;10.60;99.90;;;;;;5070432;28;20203;-77
2021/05/04 06:52:37;;;;;;;6.17;2.60;;;10.60;99.90;;;;;;5066834;28;20223;-76
2021/05/04 06:55:22;;;;;;;6.40;2.80;;;10.60;99.90;;;;;;5048569;28;20254;-76
2021/05/04 06:58:07;;;;;;;12.67;3.73;;;10.50;99.90;;;;;;5048205;28;20206;-76
2021/05/04 07:00:53;;;;;;;8.60;3.07;;;10.50;99.90;;;;;;5053110;28;20719;-77
2021/05/04 07:03:38;;;;;;;7.87;3.07;;;10.50;99.90;;;;;;5055720;28;20872;-78
2021/05/04 07:06:22;;;;;;;10.70;3.20;;;10.50;99.90;;;;;;5045478;28;20210;-78
2021/05/04 07:09:08;;;;;;;7.17;3.03;;;10.50;99.90;;;;;;5053678;28;20205;-77
2021/05/04 07:11:53;;;;;;;8.47;3.03;;;10.50;99.90;;;;;;5048932;28;20227;-77
2021/05/04 07:14:39;;;;;;;4.07;2.33;;;10.40;99.90;;;;;;5045324;28;20214;-78
2021/05/04 07:17:24;;;;;;;3.13;2.13;;;10.40;99.90;;;;;;5049265;28;20273;-78
2021/05/04 07:20:10;;;;;;;3.80;2.87;;;10.40;99.90;;;;;;5049741;28;20206;-77
2021/05/04 07:22:55;;;;;;;4.93;2.83;;;10.40;99.90;;;;;;5052826;28;20215;-78
2021/05/04 07:25:41;;;;;;;9.53;4.13;;;10.40;99.90;;;;;;5050212;28;20294;-77
2021/05/04 07:28:26;;;;;;;7.53;3.87;;;10.40;99.90;;;;;;5047254;28;20202;-77
2021/05/04 07:31:11;;;;;;;11.20;3.90;;;10.40;99.90;;;;;;5049539;28;20629;-77
2021/05/04 07:33:56;;;;;;;10.87;3.90;;;10.40;99.90;;;;;;5042294;28;20759;-77
2021/05/04 07:36:41;;;;;;;8.07;3.73;;;10.40;99.90;;;;;;5048128;28;20203;-76
2021/05/04 07:39:26;;;;;;;8.63;3.77;;;10.30;99.90;;;;;;5047871;28;20211;-76
2021/05/04 07:42:12;;;;;;;5.30;2.77;;;10.30;99.90;;;;;;5043776;28;20223;-77
2021/05/04 07:44:57;;;;;;;7.33;2.50;;;10.30;99.90;;;;;;5044478;28;20305;-76
2021/05/04 07:47:42;;;;;;;3.33;2.47;;;10.30;99.90;;;;;;5044658;28;20218;-77
2021/05/04 07:50:28;;;;;;;7.23;2.80;;;10.30;99.90;;;;;;5045274;28;20650;-77
2021/05/04 07:53:14;;;;;;;8.27;3.10;;;10.20;99.90;;;;;;5044979;28;20268;-77
2021/05/04 07:55:59;;;;;;;8.67;2.87;;;10.20;99.90;;;;;;5045910;28;21628;-77
2021/05/04 07:58:44;;;;;;;8.50;3.43;;;10.20;99.90;;;;;;5058951;28;20340;-77
2021/05/04 08:01:29;;;;;;;11.20;3.33;;;10.20;99.90;;;;;;5040323;28;20230;-77
2021/05/04 08:04:14;;;;;;;11.50;3.73;;;10.20;99.90;;;;;;5052455;28;20199;-77
2021/05/04 08:07:01;;;;;;;10.93;3.47;;;10.20;99.90;;;;;;5050712;28;20405;-76
2021/05/04 08:09:46;;;;;;;7.33;3.73;;;10.20;99.90;;;;;;5048939;28;20562;-77
2021/05/04 08:12:30;;;;;;;9.10;3.40;;;10.20;99.90;;;;;;5056055;28;20218;-79
2021/05/04 08:15:18;;;;;;;14.73;5.03;;;10.20;99.90;;;;;;5049274;28;20214;-78
2021/05/04 08:18:05;;;;;;;8.70;4.10;;;10.30;99.90;;;;;;5047482;28;20750;-77
2021/05/04 08:20:52;;;;;;;15.07;5.77;;;10.30;99.90;;;;;;5055851;28;20639;-76
2021/05/04 08:23:38;;;;;;;13.33;5.50;;;10.40;99.90;;;;;;5055300;28;20254;-77
2021/05/04 08:26:22;;;;;;;10.00;4.40;;;10.40;99.90;;;;;;5039637;28;20202;-78
2021/05/04 08:29:07;;;;;;;10.07;4.30;;;10.50;99.90;;;;;;5048405;28;20249;-77
2021/05/04 08:31:53;;;;;;;16.97;4.73;;;10.60;99.90;;;;;;5053468;28;21000;-77
2021/05/04 08:34:37;;;;;;;14.57;5.47;;;10.80;99.90;;;;;;5046958;28;20259;-78
2021/05/04 08:37:22;;;;;;;13.47;4.80;;;10.90;99.90;;;;;;5058794;28;20211;-78
2021/05/04 08:40:07;;;;;;;12.47;4.40;;;11.10;99.90;;;;;;5051157;28;20716;-76
2021/05/04 08:42:54;;;;;;;15.13;4.77;;;11.20;99.90;;;;;;5056604;28;20294;-77
2021/05/04 08:45:42;;;;;;;7.03;3.50;;;11.40;99.90;;;;;;5048533;28;20210;-77
2021/05/04 08:48:29;;;;;;;12.90;5.00;;;11.50;99.90;;;;;;5051444;28;20198;-78
2021/05/04 08:51:15;;;;;;;12.27;3.90;;;11.50;99.90;;;;;;5057824;28;20234;-78
2021/05/04 08:54:00;;;;;;;10.73;4.07;;;11.60;99.90;;;;;;5047151;28;20207;-77
2021/05/04 08:56:45;;;;;;;8.53;3.47;;;11.60;99.90;;;;;;5054926;28;20295;-77
2021/05/04 08:59:31;;;;;;;7.30;3.20;;;11.70;99.90;;;;;;5080679;28;20190;-78
2021/05/04 09:02:20;;;;;;;13.17;3.90;;;11.70;99.90;;;;;;5079732;28;20205;-77
2021/05/04 09:05:16;;;;;;;10.23;3.67;;;11.60;99.90;;;;;;5055088;28;20211;-77
2021/05/04 09:08:05;;;;;;;11.67;3.80;;;11.60;99.90;;;;;;5050863;28;20241;-78
2021/05/04 09:10:52;;;;;;;8.60;2.90;;;11.50;99.90;;;;;;5052780;28;20743;-77
2021/05/04 09:13:48;;;;;;;14.90;5.10;;;11.40;99.90;;;;;;5049495;28;20293;-77
2021/05/04 09:16:38;;;;;;;9.67;3.50;;;11.30;99.90;;;;;;5049520;28;20222;-79
2021/05/04 09:22:39;;;;;;;11.73;3.27;;;11.30;99.90;;;;;;4985191;28;20212;-77
2021/05/04 09:25:32;;;;;;;11.33;3.73;;;11.40;99.90;;;;;;5051771;28;20206;-77
2021/05/04 09:28:17;;;;;;;11.10;3.73;;;11.40;99.90;;;;;;5052622;28;20609;-78
2021/05/04 09:31:02;;;;;;;7.67;3.00;;;11.50;99.90;;;;;;5046990;28;20226;-79
2021/05/04 09:33:47;;;;;;;11.07;4.00;;;11.60;99.90;;;;;;5052513;28;20222;-78
2021/05/04 09:36:41;;;;;;;7.70;3.07;;;11.70;99.90;;;;;;5054137;28;20205;-79
2021/05/04 09:39:28;;;;;;;11.40;3.47;;;11.80;99.90;;;;;;5040870;28;20685;-79
2021/05/04 09:42:13;;;;;;;8.03;3.60;;;11.90;99.90;;;;;;5048335;28;20327;-78
2021/05/04 09:44:58;;;;;;;7.10;3.53;;;12.20;99.90;;;;;;5055068;28;20221;-79
2021/05/04 09:47:43;;;;;;;8.03;3.27;;;12.40;99.90;;;;;;5057196;28;20744;-78
2021/05/04 09:50:28;;;;;;;8.87;3.77;;;13.00;99.90;;;;;;5035578;28;20250;-78
2021/05/04 09:53:14;;;;;;;11.43;3.23;;;13.40;99.90;;;;;;5043880;28;20294;-78
2021/05/04 09:56:02;;;;;;;15.43;4.40;;;13.60;99.90;;;;;;5044361;28;20211;-78
2021/05/04 09:58:49;;;;;;;9.63;3.30;;;13.70;99.90;;;;;;5042526;28;20235;-76
2021/05/04 10:01:34;;;;;;;8.73;2.90;;;13.60;99.90;;;;;;5042640;28;20230;-77
2021/05/04 10:04:19;;;;;;;9.90;3.20;;;13.50;99.90;;;;;;5049438;28;20747;-77
2021/05/04 10:07:05;;;;;;;10.03;3.47;;;13.30;99.90;;;;;;5045556;28;20961;-76
2021/05/04 10:09:50;;;;;;;11.33;3.10;;;13.10;99.90;;;;;;5039299;28;20238;-76
2021/05/04 10:12:38;;;;;;;10.07;2.80;;;12.90;99.90;;;;;;5035400;28;20304;-76
2021/05/04 10:15:24;;;;;;;10.57;3.03;;;12.80;99.90;;;;;;5042721;28;20783;-77
2021/05/04 10:18:10;;;;;;;9.50;3.23;;;12.60;99.90;;;;;;5046159;28;20242;-77
2021/05/04 10:20:57;;;;;;;7.40;3.03;;;12.50;99.90;;;;;;5049026;28;20670;-77
2021/05/04 10:23:45;;;;;;;11.23;3.00;;;12.40;99.90;;;;;;5043347;28;20202;-78
2021/05/04 10:26:32;;;;;;;9.63;2.47;;;12.30;99.90;;;;;;5044985;28;20734;-78
2021/05/04 10:29:18;;;;;;;6.47;2.40;;;12.10;99.90;;;;;;5046161;28;20201;-78
2021/05/04 10:32:04;;;;;;;8.10;1.90;;;11.90;99.90;;;;;;5045118;28;20260;-78
2021/05/04 10:34:49;;;;;;;7.27;2.37;;;11.70;99.90;;;;;;5047771;28;20210;-78
2021/05/04 10:37:35;;;;;;;9.00;1.80;;;11.60;99.90;;;;;;5044428;28;20238;-77
2021/05/04 10:40:29;;;;;;;6.47;1.60;;;11.40;99.90;;;;;;5044195;28;20234;-79
2021/05/04 10:43:40;;;;;;;5.63;2.10;;;11.20;99.90;;;;;;5057465;28;20187;-77
2021/05/04 10:46:44;;;;;;;3.97;1.70;;;11.00;99.90;;;;;;5031342;28;20215;-79
2021/05/04 10:49:57;;;;;;;6.57;2.17;;;11.00;99.90;;;;;;5047736;28;20584;-78
2021/05/04 10:52:58;;;;;;;5.80;1.67;;;11.10;99.90;;;;;;5048160;28;20241;-77
2021/05/04 10:56:07;;;;;;;8.27;1.90;;;11.50;99.90;;;;;;5046363;28;20206;-78
2021/05/04 10:58:55;;;;;;;13.90;3.23;;;12.00;99.90;;;;;;5049425;28;20206;-78
2021/05/04 11:02:26;;;;;;;5.63;1.80;;;12.40;99.90;;;;;;5055747;28;20751;-80
2021/05/04 11:05:46;;;;;;;4.13;1.60;;;12.80;99.90;;;;;;5040529;28;20291;-80
2021/05/04 11:09:05;;;;;;;5.77;1.53;;;13.10;99.90;;;;;;5049448;28;20210;-79
2021/05/04 11:11:52;;;;;;;3.70;1.27;;;13.40;99.90;;;;;;5056832;28;20234;-79
2021/05/04 11:14:39;;;;;;;5.03;1.30;;;13.60;99.90;;;;;;5054303;28;20297;-78
2021/05/04 11:17:42;;;;;;;5.37;1.63;;;13.70;99.90;;;;;;5058217;28;20250;-79
2021/05/04 11:20:38;;;;;;;8.20;1.67;;;13.80;99.90;;;;;;5056805;28;20241;-79
2021/05/04 11:23:25;;;;;;;4.00;1.40;;;13.80;99.90;;;;;;5054624;28;20304;-78
2021/05/04 11:26:32;;;;;;;4.13;1.37;;;13.70;99.90;;;;;;5050426;28;20705;-80
2021/05/04 11:29:19;;;;;;;7.90;1.77;;;13.60;99.90;;;;;;5055482;28;20265;-78
2021/05/04 11:32:12;;;;;;;6.93;2.10;;;13.50;99.90;;;;;;5053398;28;20278;-77
2021/05/04 11:34:59;;;;;;;3.67;1.93;;;13.40;99.90;;;;;;5051219;28;21187;-78
2021/05/04 11:37:48;;;;;;;4.87;2.00;;;13.10;99.90;;;;;;5042083;28;20693;-80
2021/05/04 11:40:33;;;;;;;5.33;1.83;;;12.90;99.90;;;;;;5047692;28;20256;-77
2021/05/04 11:43:20;;;;;;;5.67;2.27;;;12.70;99.90;;;;;;5052967;28;20199;-80
2021/05/04 11:46:07;;;;;;;6.33;2.43;;;12.60;99.90;;;;;;5043219;28;20713;-77
2021/05/04 11:48:59;;;;;;;5.53;2.50;;;12.60;99.90;;;;;;5050082;28;20308;-78
2021/05/04 11:52:01;;;;;;;6.70;1.87;;;12.80;99.90;;;;;;5062304;28;20223;-80
2021/05/04 11:54:47;;;;;;;7.93;2.20;;;13.20;99.90;;;;;;5061614;28;20200;-80
2021/05/04 11:57:32;;;;;;;9.57;2.60;;;13.70;99.90;;;;;;5055923;28;20216;-78
2021/05/04 12:00:20;;;;;;;3.57;1.63;;;14.10;99.90;;;;;;5050227;28;20235;-79
2021/05/04 12:03:07;;;;;;;4.57;1.63;;;14.30;99.90;;;;;;5051933;28;20220;-79
2021/05/04 12:05:55;;;;;;;5.77;1.73;;;14.40;99.90;;;;;;5054204;28;20299;-78
2021/05/04 12:08:40;;;;;;;4.77;1.37;;;14.30;99.90;;;;;;5042005;28;20209;-79
2021/05/04 12:11:25;;;;;;;4.90;1.40;;;14.30;99.90;;;;;;5053828;28;20610;-78
2021/05/04 12:14:10;;;;;;;4.13;1.20;;;14.20;99.90;;;;;;5056809;28;20216;-78
2021/05/04 12:16:55;;;;;;;3.50;1.30;;;14.10;99.90;;;;;;5045930;28;20212;-81
2021/05/04 12:19:41;;;;;;;4.30;1.33;;;14.00;99.90;;;;;;5054111;28;20274;-77
2021/05/04 12:22:42;;;;;;;4.03;1.77;;;13.90;99.90;;;;;;5057682;28;20216;-79
2021/05/04 12:25:48;;;;;;;4.90;1.60;;;13.70;99.90;;;;;;5052967;28;20274;-78
2021/05/04 12:28:34;;;;;;;5.23;1.30;;;13.60;99.90;;;;;;5041890;28;20243;-79
2021/05/04 12:31:22;;;;;;;6.27;1.30;;;13.50;99.90;;;;;;5051682;28;20270;-80
2021/05/04 12:34:07;;;;;;;3.93;1.50;;;13.40;99.90;;;;;;5050285;28;20223;-78
2021/05/04 12:36:55;;;;;;;6.87;1.50;;;13.30;99.90;;;;;;5055038;28;20202;-81
2021/05/04 12:39:41;;;;;;;3.67;1.10;;;13.30;99.90;;;;;;5060135;28;20202;-79
2021/05/04 12:42:28;;;;;;;5.23;1.60;;;13.20;99.90;;;;;;5048455;28;20289;-79
2021/05/04 12:45:15;;;;;;;4.03;1.30;;;13.10;99.90;;;;;;5036783;28;20217;-77
2021/05/04 12:48:00;;;;;;;3.10;1.30;;;13.00;99.90;;;;;;5052642;28;20294;-78
2021/05/04 12:50:58;;;;;;;3.50;1.40;;;12.90;99.90;;;;;;5041372;28;20461;-79
2021/05/04 12:53:46;;;;;;;3.00;1.43;;;12.70;99.90;;;;;;5051207;28;20292;-78
2021/05/04 12:56:33;;;;;;;3.40;1.57;;;12.60;99.90;;;;;;5052672;28;20207;-81
2021/05/04 12:59:27;;;;;;;4.40;1.40;;;12.50;99.90;;;;;;5044399;28;20233;-77
2021/05/04 13:02:21;;;;;;;2.50;1.20;;;12.50;99.90;;;;;;5049443;28;20238;-79
2021/05/04 13:05:18;;;;;;;4.73;1.20;;;12.50;99.90;;;;;;5045419;28;20216;-81
2021/05/04 13:08:06;;;;;;;4.13;1.03;;;12.50;99.90;;;;;;5042873;28;20216;-78
2021/05/04 13:10:57;;;;;;;5.90;1.50;;;12.50;99.90;;;;;;5048486;28;20234;-77
2021/05/04 13:13:53;;;;;;;2.93;1.20;;;12.50;99.90;;;;;;5044118;28;20308;-77
2021/05/04 13:17:02;;;;;;;2.33;0.90;;;12.60;99.90;;;;;;5040057;28;20254;-78
2021/05/04 13:20:14;;;;;;;2.20;0.90;;;12.70;99.90;;;;;;5041347;28;20274;-79
2021/05/04 13:32:35;;;;;;;2.60;1.23;;;12.80;99.90;;;;;;5041022;28;20737;-79
2021/05/04 13:35:23;;;;;;;2.60;1.43;;;12.60;99.90;;;;;;5045057;28;20255;-79
2021/05/04 13:38:14;;;;;;;4.87;1.47;;;12.40;99.90;;;;;;5046595;28;20253;-77
2021/05/04 13:50:12;;;;;;;3.83;1.27;;;11.70;99.90;;;;;;5040408;28;20246;-79
2021/05/04 13:52:57;;;;;;;2.60;1.23;;;11.60;99.90;;;;;;5045706;28;20265;-79
2021/05/04 13:55:42;;;;;;;3.27;1.20;;;11.70;99.90;;;;;;5050510;28;20284;-79
2021/05/04 13:58:29;;;;;;;6.97;1.70;;;12.00;99.90;;;;;;5051710;28;20277;-80
2021/05/04 14:01:19;;;;;;;6.87;1.50;;;12.30;99.90;;;;;;5045639;28;20230;-79
2021/05/04 14:04:20;;;;;;;2.13;1.13;;;12.40;99.90;;;;;;5048058;28;20709;-80
2021/05/04 14:07:30;;;;;;;4.40;0.97;;;12.70;99.90;;;;;;5049165;28;20427;-78
2021/05/04 14:26:08;;;;;;;4.57;1.47;;;11.90;99.90;;;;;;5049956;28;20655;-77
2021/05/04 14:28:53;;;;;;;2.70;1.50;;;11.90;99.90;;;;;;5058942;28;20321;-80
2021/05/04 14:31:39;;;;;;;3.10;1.50;;;11.90;99.90;;;;;;5061752;28;20230;-77
2021/05/04 14:34:26;;;;;;;3.83;1.63;;;12.10;99.90;;;;;;5055961;28;20228;-78
2021/05/04 14:37:15;;;;;;;6.80;1.73;;;12.30;99.90;;;;;;5054665;28;20215;-79
2021/05/04 14:40:10;;;;;;;5.53;1.53;;;12.50;99.90;;;;;;5052336;28;20247;-80
2021/05/04 14:43:28;;;;;;;5.53;1.63;;;12.70;99.90;;;;;;5046863;28;20702;-78
2021/05/04 14:46:27;;;;;;;3.77;1.40;;;13.00;99.90;;;;;;5060035;28;20297;-76
2021/05/04 14:58:46;;;;;;;4.23;1.50;;;14.50;99.90;;;;;;5061567;28;20222;-76
2021/05/04 15:01:44;;;;;;;7.33;1.37;;;14.80;99.90;;;;;;5071094;28;20214;-77
2021/05/04 15:04:30;;;;;;;4.50;1.27;;;15.10;99.90;;;;;;5076060;28;20194;-75
2021/05/04 15:07:15;;;;;;;6.27;1.40;;;15.20;99.90;;;;;;5071340;28;20220;-75
2021/05/04 15:09:59;;;;;;;6.20;1.50;;;15.30;99.90;;;;;;5074289;28;20202;-76
2021/05/04 15:12:45;;;;;;;2.80;0.90;;;15.30;99.90;;;;;;5059391;28;20221;-79
2021/05/04 15:15:39;;;;;;;2.40;1.20;;;15.30;99.90;;;;;;5058356;28;20244;-78
2021/05/04 15:21:42;;;;;;;2.77;1.60;;;15.00;99.90;;;;;;5056758;28;20237;-80
2021/05/04 15:24:27;;;;;;;2.07;1.43;;;14.60;99.90;;;;;;5060554;28;20213;-77